Time;durP1;ratioP1;P1;durP2;ratioP2;P2;SDS_P1;SDS_P2;PMS_P1;PMS_P2;Temp;Humidity;BMP_temperature;BMP_pressure;BME280_temperature;BME280_humidity;BME280_pressure;Samples;Min_cycle;Max_cycle;Signal;HPM_P1;HPM_P2
2021/04/15 00:01:20;;;;;;;7.10;4.57;;;;;;;3.29;100.00;94899.13;10539909;28;20032;-83
2021/04/15 00:06:25;;;;;;;7.10;4.20;;;;;;;3.30;100.00;94898.88;10533037;28;20020;-83
2021/04/15 00:11:30;;;;;;;4.95;3.78;;;;;;;3.23;100.00;94898.97;10530803;28;20063;-83
2021/04/15 00:16:32;;;;;;;6.05;3.72;;;;;;;3.40;100.00;94898.34;10536626;28;20032;-83
2021/04/15 00:21:33;;;;;;;5.32;4.22;;;;;;;3.24;100.00;94892.63;10539577;28;20437;-83
2021/04/15 00:26:43;;;;;;;4.85;3.40;;;;;;;3.38;100.00;94900.44;10520831;28;20115;-83
2021/04/15 00:31:44;;;;;;;4.30;3.65;;;;;;;3.46;100.00;94896.66;10538791;28;20034;-83
2021/04/15 00:36:45;;;;;;;6.07;4.10;;;;;;;3.40;100.00;94887.72;10538778;28;20127;-83
2021/04/15 00:41:46;;;;;;;4.43;3.85;;;;;;;3.15;100.00;94888.63;10504729;28;20275;-84
2021/04/15 00:46:47;;;;;;;4.70;4.07;;;;;;;2.99;100.00;94889.25;10496335;28;20028;-84
2021/04/15 00:51:51;;;;;;;4.93;3.60;;;;;;;3.23;100.00;94893.66;10470633;28;20063;-83
2021/04/15 00:56:51;;;;;;;4.93;3.42;;;;;;;3.36;100.00;94897.19;10489120;28;20037;-83
2021/04/15 01:01:52;;;;;;;4.78;3.42;;;;;;;3.35;100.00;94891.06;10485737;28;20403;-83
2021/04/15 01:06:53;;;;;;;5.13;3.90;;;;;;;3.46;100.00;94886.84;10495001;28;20028;-83
2021/04/15 01:12:09;;;;;;;5.20;3.73;;;;;;;3.41;100.00;94878.72;10476110;28;20036;-83
2021/04/15 01:17:26;;;;;;;4.35;3.67;;;;;;;2.89;100.00;94874.66;10494650;28;20290;-82
2021/04/15 01:22:49;;;;;;;4.97;3.25;;;;;;;2.86;100.00;94875.09;10494415;28;20028;-83
2021/04/15 01:27:58;;;;;;;5.65;3.80;;;;;;;2.62;100.00;94873.31;10494423;28;20053;-84
2021/04/15 01:33:13;;;;;;;5.85;4.25;;;;;;;2.38;100.00;94878.44;10509810;28;20775;-84
2021/04/15 01:38:28;;;;;;;6.25;4.18;;;;;;;2.24;100.00;94874.28;10492428;28;20052;-83
2021/04/15 01:43:32;;;;;;;5.72;4.88;;;;;;;2.15;100.00;94869.25;10494099;28;20085;-84
2021/04/15 01:48:40;;;;;;;5.68;3.95;;;;;;;2.24;100.00;94877.72;10475860;28;20518;-83
2021/04/15 01:53:50;;;;;;;5.83;4.00;;;;;;;2.40;100.00;94879.03;10493835;28;20044;-83
2021/04/15 01:59:07;;;;;;;5.30;3.80;;;;;;;2.37;100.00;94876.78;10493568;28;20380;-83
2021/04/15 02:04:15;;;;;;;4.03;3.25;;;;;;;2.35;100.00;94874.38;10512499;28;20931;-83
2021/04/15 02:09:17;;;;;;;5.32;4.07;;;;;;;2.47;100.00;94884.25;10502192;28;20503;-83
2021/04/15 02:14:24;;;;;;;3.95;3.53;;;;;;;2.42;100.00;94882.28;10502194;28;20035;-83
2021/04/15 02:19:29;;;;;;;4.10;3.50;;;;;;;2.50;100.00;94886.50;10483481;28;20123;-83
2021/04/15 02:24:51;;;;;;;3.42;2.90;;;;;;;2.60;100.00;94889.44;10501699;28;20111;-83
2021/04/15 02:29:59;;;;;;;4.53;3.95;;;;;;;2.64;100.00;94889.84;10483128;28;20020;-82
2021/04/15 02:35:06;;;;;;;5.40;3.45;;;;;;;2.61;100.00;94898.22;10501431;28;20033;-83
2021/04/15 02:40:23;;;;;;;6.65;4.38;;;;;;;2.77;100.00;94888.88;10500824;28;20028;-82
2021/04/15 02:45:34;;;;;;;6.22;4.57;;;;;;;2.83;100.00;94894.13;10500773;28;20021;-84
2021/04/15 02:50:35;;;;;;;5.00;3.53;;;;;;;3.14;100.00;94889.69;10508790;28;20048;-76
2021/04/15 02:55:43;;;;;;;8.25;4.78;;;;;;;3.18;100.00;94896.19;10471083;28;20788;-76
2021/04/15 03:00:47;;;;;;;5.38;3.80;;;;;;;3.08;100.00;94901.19;10488849;28;20029;-75
2021/04/15 03:06:02;;;;;;;5.78;3.75;;;;;;;3.19;100.00;94900.44;10488242;28;20044;-76
2021/04/15 03:11:08;;;;;;;6.45;4.57;;;;;;;3.45;100.00;94909.13;10488108;28;20075;-76
2021/04/15 03:16:09;;;;;;;6.15;3.92;;;;;;;3.38;100.00;94898.59;10487662;28;20816;-77
2021/04/15 03:21:18;;;;;;;6.90;4.60;;;;;;;3.45;100.00;94893.19;10488528;28;20040;-77
2021/04/15 03:26:29;;;;;;;4.97;4.03;;;;;;;3.44;100.00;94898.72;10488483;28;20835;-78
2021/04/15 03:31:33;;;;;;;7.68;3.97;;;;;;;3.41;100.00;94900.78;10495526;28;20093;-76
2021/04/15 03:36:39;;;;;;;9.15;5.13;;;;;;;3.52;100.00;94895.78;10525861;28;20571;-76
2021/04/15 03:41:42;;;;;;;10.88;4.97;;;;;;;3.67;100.00;94903.31;10524270;28;20026;-75
2021/04/15 03:46:59;;;;;;;14.40;5.93;;;;;;;3.61;100.00;94888.28;10522423;28;20094;-76
2021/04/15 03:52:07;;;;;;;13.50;6.05;;;;;;;3.63;100.00;94895.00;10522673;28;20059;-75
2021/04/15 03:57:11;;;;;;;11.32;6.35;;;;;;;3.61;100.00;94888.28;10507299;28;20713;-75
2021/04/15 04:02:16;;;;;;;13.68;7.43;;;;;;;3.51;100.00;94897.59;10522527;28;20031;-75
2021/04/15 04:07:29;;;;;;;11.80;6.80;;;;;;;3.46;100.00;94891.34;10504592;28;20016;-75
2021/04/15 04:12:45;;;;;;;11.80;7.00;;;;;;;3.50;100.00;94900.47;10526959;28;20024;-74
2021/04/15 04:18:14;;;;;;;14.77;7.30;;;;;;;3.42;100.00;94898.97;10526233;28;20032;-75
2021/04/15 04:23:34;;;;;;;;;;;;;;;3.45;100.00;94906.47;10478162;28;20035;-75
2021/04/15 04:28:43;;;;;;;13.43;7.28;;;;;;;3.49;100.00;94914.78;10513442;28;19919;-75
2021/04/15 04:33:47;;;;;;;14.90;8.73;;;;;;;3.58;100.00;94910.81;10508003;28;20123;-75
2021/04/15 04:38:48;;;;;;;10.80;7.50;;;;;;;3.44;100.00;94914.66;10483458;28;20079;-76
2021/04/15 04:44:18;;;;;;;12.95;7.80;;;;;;;3.51;100.00;94918.84;10483351;28;20032;-76
2021/04/15 04:49:28;;;;;;;15.15;8.70;;;;;;;3.25;100.00;94906.69;10486652;28;20423;-76
2021/04/15 04:54:28;;;;;;;13.88;8.43;;;;;;;3.24;100.00;94910.41;10507095;28;20050;-75
2021/04/15 04:59:35;;;;;;;14.80;8.60;;;;;;;3.11;100.00;94921.97;10525199;28;20036;-76
2021/04/15 05:04:36;;;;;;;17.77;10.65;;;;;;;3.22;100.00;94918.59;10505913;28;20380;-76
2021/04/15 05:09:40;;;;;;;13.88;8.40;;;;;;;3.38;100.00;94927.81;10523126;28;20024;-76
2021/04/15 05:14:41;;;;;;;23.63;9.57;;;;;;;3.57;100.00;94933.09;10526235;28;20036;-76
2021/04/15 05:19:41;;;;;;;15.48;8.73;;;;;;;3.83;100.00;94941.75;10501987;28;20032;-76
2021/04/15 05:24:49;;;;;;;14.70;8.48;;;;;;;3.88;100.00;94937.38;10494638;28;20395;-76
2021/04/15 05:30:00;;;;;;;18.83;9.73;;;;;;;3.83;100.00;94939.91;10527669;28;20024;-75
2021/04/15 05:35:00;;;;;;;16.25;9.85;;;;;;;4.06;100.00;94933.03;10527565;28;20042;-75
2021/04/15 05:40:01;;;;;;;17.58;9.98;;;;;;;4.01;100.00;94940.91;10525354;28;20411;-75
2021/04/15 05:45:09;;;;;;;35.53;18.98;;;;;;;4.17;100.00;94934.09;10494820;28;20583;-75
2021/04/15 05:50:15;;;;;;;;;;;;;;;4.10;100.00;94935.03;10500829;28;20037;-75
2021/04/15 05:55:18;;;;;;;25.33;11.82;;;;;;;4.20;100.00;94942.47;10503312;28;19912;-75
2021/04/15 06:00:32;;;;;;;14.65;9.02;;;;;;;4.21;100.00;94941.41;10524935;28;20870;-75
2021/04/15 06:05:38;;;;;;;14.13;9.05;;;;;;;4.08;100.00;94942.41;10486028;28;20032;-75
2021/04/15 06:10:40;;;;;;;14.23;8.15;;;;;;;3.86;100.00;94947.41;10484523;28;20139;-75
2021/04/15 06:15:57;;;;;;;20.98;9.57;;;;;;;3.50;100.00;94941.16;10480918;28;20108;-75
2021/04/15 06:21:03;;;;;;;16.50;8.45;;;;;;;3.31;100.00;94942.19;10480449;28;20032;-74
2021/04/15 06:26:05;;;;;;;13.65;8.85;;;;;;;3.31;100.00;94945.66;10463574;28;20036;-75
2021/04/15 06:31:27;;;;;;;15.30;10.27;;;;;;;3.32;100.00;94941.16;10496871;28;20033;-75
2021/04/15 06:37:03;;;;;;;17.58;10.07;;;;;;;3.57;100.00;94941.06;10481153;28;20048;-75
2021/04/15 06:42:34;;;;;;;16.70;10.38;;;;;;;3.67;100.00;94941.34;10458585;28;20037;-75
2021/04/15 06:47:48;;;;;;;12.93;7.72;;;;;;;3.62;100.00;94938.56;10463129;28;20037;-75
2021/04/15 06:52:57;;;;;;;14.40;8.93;;;;;;;3.49;100.00;94928.91;10487918;28;20047;-75
2021/04/15 06:58:16;;;;;;;16.73;9.25;;;;;;;3.65;100.00;94937.28;10488138;28;20033;-76
2021/04/15 07:03:42;;;;;;;;;;;;;;;4.13;100.00;94954.22;10499215;28;20031;-75
2021/04/15 07:08:54;;;;;;;17.92;8.50;;;;;;;4.37;100.00;94950.59;10514082;28;20379;-76
2021/04/15 07:14:16;;;;;;;16.42;8.35;;;;;;;4.04;100.00;94953.75;10529751;28;20039;-76
2021/04/15 07:19:20;;;;;;;15.68;9.25;;;;;;;4.22;100.00;94953.66;10529111;28;20081;-76
2021/04/15 07:25:09;;;;;;;16.30;9.20;;;;;;;4.43;100.00;94967.50;10528481;28;20105;-76
2021/04/15 07:30:09;;;;;;;14.82;8.98;;;;;;;4.00;100.00;94965.88;10357584;28;20025;-76
2021/04/15 07:35:27;;;;;;;19.33;9.83;;;;;;;4.21;100.00;94960.03;10477752;28;20042;-76
2021/04/15 07:40:50;;;;;;;18.73;10.27;;;;;;;4.86;100.00;94963.72;10529350;28;20024;-76
2021/04/15 07:46:15;;;;;;;17.58;9.57;;;;;;;5.00;100.00;94963.50;10529484;28;20027;-77
2021/04/15 07:51:50;;;;;;;20.90;12.13;;;;;;;4.33;100.00;94969.91;10527747;28;20048;-76
2021/04/15 07:57:12;;;;;;;17.42;10.65;;;;;;;4.43;100.00;94970.16;10528086;28;20143;-76
2021/04/15 08:02:38;;;;;;;17.05;10.15;;;;;;;4.35;100.00;94960.63;10509620;28;20113;-76
2021/04/15 08:08:09;;;;;;;17.58;10.48;;;;;;;4.30;100.00;94968.50;10528009;28;20035;-77
2021/04/15 08:13:24;;;;;;;23.48;8.85;;;;;;;4.63;100.00;94967.16;10527746;28;20031;-75
2021/04/15 08:18:48;;;;;;;23.02;9.93;;;;;;;4.89;100.00;94963.25;10527825;28;20036;-75
2021/04/15 08:24:03;;;;;;;20.10;10.32;;;;;;;4.97;100.00;94970.09;10527000;28;20027;-75
2021/04/15 08:29:32;;;;;;;14.55;10.00;;;;;;;5.30;100.00;94977.47;10525789;28;20036;-75
2021/04/15 08:34:35;;;;;;;21.00;11.18;;;;;;;5.39;97.88;94964.59;10525943;28;20107;-75
2021/04/15 08:39:45;;;;;;;20.25;10.88;;;;;;;5.03;100.00;94966.47;10526008;28;20038;-76
2021/04/15 08:45:19;;;;;;;18.05;10.43;;;;;;;4.99;100.00;94969.84;10525556;28;20074;-75
2021/04/15 08:50:45;;;;;;;17.73;10.35;;;;;;;5.35;100.00;94971.44;10508082;28;20036;-74
2021/04/15 08:55:55;;;;;;;18.10;12.57;;;;;;;5.67;100.00;94964.91;10497732;28;20479;-75
2021/04/15 09:01:25;;;;;;;20.95;10.73;;;;;;;5.84;100.00;94972.97;10526278;28;20107;-74
2021/04/15 09:06:25;;;;;;;18.95;10.18;;;;;;;5.96;100.00;94971.84;10506824;28;20394;-75
2021/04/15 09:11:45;;;;;;;15.75;9.25;;;;;;;6.11;99.54;94966.03;10524182;28;20044;-75
2021/04/15 09:17:07;;;;;;;18.25;10.18;;;;;;;5.98;100.00;94963.66;10525137;28;20082;-74
2021/04/15 09:22:33;;;;;;;17.90;10.35;;;;;;;5.92;100.00;94959.25;10506405;28;20131;-74
2021/04/15 09:27:45;;;;;;;17.80;10.55;;;;;;;5.86;99.07;94954.84;10524414;28;20066;-74
2021/04/15 09:32:51;;;;;;;22.85;11.30;;;;;;;5.65;100.00;94951.78;10524758;28;20035;-75
2021/04/15 09:38:01;;;;;;;21.13;12.13;;;;;;;6.09;98.07;94948.63;10524545;28;20035;-75
2021/04/15 09:43:27;;;;;;;27.83;11.20;;;;;;;6.26;89.18;94935.31;10524810;28;20107;-75
2021/04/15 09:48:52;;;;;;;19.15;10.95;;;;;;;6.29;93.60;94930.31;10485754;28;20044;-75
2021/04/15 09:54:08;;;;;;;17.60;10.73;;;;;;;6.45;93.84;94920.69;10524204;28;20052;-75
2021/04/15 09:59:17;;;;;;;23.67;9.88;;;;;;;6.90;92.01;94921.63;10524215;28;20493;-75
2021/04/15 10:04:39;;;;;;;17.00;10.43;;;;;;;7.54;84.70;94925.69;10523857;28;20446;-75
2021/04/15 10:10:10;;;;;;;17.33;10.80;;;;;;;7.30;81.57;94920.59;10524178;28;20032;-75
2021/04/15 10:15:37;;;;;;;16.75;8.85;;;;;;;7.62;70.83;94921.75;10523424;28;20032;-75
2021/04/15 10:20:59;;;;;;;13.95;9.20;;;;;;;8.03;70.08;94909.63;10470101;28;20155;-75
2021/04/15 10:26:14;;;;;;;14.98;9.18;;;;;;;7.62;73.11;94925.25;10527606;28;20052;-75
2021/04/15 10:31:27;;;;;;;13.05;9.50;;;;;;;7.68;73.05;94916.22;10532440;28;20128;-75
2021/04/15 10:36:56;;;;;;;13.15;8.43;;;;;;;7.76;72.90;94911.47;10532452;28;20135;-75
2021/04/15 10:42:15;;;;;;;16.17;9.65;;;;;;;7.89;73.93;94902.28;10534498;28;20762;-75
2021/04/15 10:47:18;;;;;;;;;;;;;;;7.95;74.59;94898.59;10494255;28;20039;-75
2021/04/15 10:52:30;;;;;;;13.65;8.25;;;;;;;8.48;65.73;94896.94;10489762;28;19916;-75
2021/04/15 10:57:33;;;;;;;13.30;7.35;;;;;;;9.27;58.94;94875.75;10489863;28;20033;-76
2021/04/15 11:02:50;;;;;;;9.80;6.15;;;;;;;10.24;53.74;94879.78;10472614;28;20031;-75
2021/04/15 11:07:53;;;;;;;18.08;7.63;;;;;;;13.53;48.11;94858.41;10489505;28;20024;-75
2021/04/15 11:13:05;;;;;;;8.00;5.85;;;;;;;16.21;39.69;94854.72;10489791;28;20078;-75
2021/04/15 11:18:13;;;;;;;9.07;5.18;;;;;;;15.82;39.22;94850.69;10491991;28;20086;-76
2021/04/15 11:23:13;;;;;;;7.70;5.63;;;;;;;14.43;42.46;94855.03;10488798;28;20547;-76
2021/04/15 11:28:22;;;;;;;8.88;6.43;;;;;;;13.66;43.03;94855.03;10486056;28;20020;-75
2021/04/15 11:33:36;;;;;;;8.85;5.93;;;;;;;12.67;45.19;94859.03;10488662;28;20118;-75
2021/04/15 11:38:37;;;;;;;9.27;6.00;;;;;;;12.64;44.57;94855.00;10488137;28;20025;-75
2021/04/15 11:43:38;;;;;;;10.05;5.28;;;;;;;12.26;47.70;94843.16;10486694;28;20395;-76
2021/04/15 11:48:38;;;;;;;11.43;5.72;;;;;;;11.72;46.84;94836.72;10469955;28;20027;-76
2021/04/15 11:53:44;;;;;;;6.32;4.45;;;;;;;11.79;44.22;94839.91;10487915;28;20045;-75
2021/04/15 11:58:44;;;;;;;10.25;5.25;;;;;;;12.08;46.10;94831.97;10487228;28;20033;-76
2021/04/15 12:03:59;;;;;;;10.95;7.40;;;;;;;11.49;48.73;94844.38;10487925;28;20025;-76
2021/04/15 12:09:01;;;;;;;8.10;6.25;;;;;;;11.53;48.18;94842.75;10487147;28;20044;-76
2021/04/15 12:14:13;;;;;;;12.05;6.10;;;;;;;11.46;47.82;94843.03;10488004;28;20105;-76
2021/04/15 12:19:50;;;;;;;13.13;7.00;;;;;;;10.91;47.46;94840.28;10489971;28;20025;-76
2021/04/15 12:25:20;;;;;;;14.52;6.97;;;;;;;10.93;48.40;94848.84;10489339;28;20539;-76
2021/04/15 12:30:26;;;;;;;8.60;6.07;;;;;;;10.53;47.45;94847.03;10487393;28;20442;-76
2021/04/15 12:35:29;;;;;;;9.85;6.45;;;;;;;10.36;51.81;94847.31;10488514;28;20028;-76
2021/04/15 12:40:33;;;;;;;10.52;6.82;;;;;;;9.65;54.48;94848.78;10487354;28;20190;-75
2021/04/15 12:45:46;;;;;;;10.95;6.47;;;;;;;9.41;54.36;94846.56;10487575;28;20107;-75
2021/04/15 12:50:49;;;;;;;11.68;6.82;;;;;;;9.29;51.88;94833.38;10486453;28;20048;-75
2021/04/15 12:55:51;;;;;;;8.20;5.80;;;;;;;8.72;52.69;94841.16;10487623;28;20036;-75
2021/04/15 13:00:55;;;;;;;11.02;6.60;;;;;;;8.62;55.62;94838.38;10487202;28;20492;-75
2021/04/15 13:06:11;;;;;;;11.88;6.00;;;;;;;8.17;55.09;94836.97;10487828;28;20029;-75
2021/04/15 13:11:17;;;;;;;10.77;6.20;;;;;;;7.65;61.60;94841.84;10486612;28;20150;-75
2021/04/15 13:16:35;;;;;;;8.75;5.88;;;;;;;7.29;59.29;94843.31;10484894;28;20052;-75
2021/04/15 13:21:38;;;;;;;9.63;6.72;;;;;;;6.93;62.97;94835.66;10483817;28;20028;-75
2021/04/15 13:26:39;;;;;;;11.48;6.82;;;;;;;6.98;61.24;94834.94;10499853;28;20043;-76
2021/04/15 13:31:48;;;;;;;12.75;6.65;;;;;;;6.91;61.37;94840.44;10484563;28;20038;-76
2021/04/15 13:36:49;;;;;;;8.48;6.40;;;;;;;6.93;64.41;94840.19;10465298;28;20454;-75
2021/04/15 13:41:52;;;;;;;10.60;6.00;;;;;;;6.99;63.40;94834.66;10484464;28;20027;-75
2021/04/15 13:46:53;;;;;;;12.45;7.50;;;;;;;6.96;63.76;94839.69;10484027;28;20021;-75
2021/04/15 13:52:32;;;;;;;16.90;6.73;;;;;;;6.94;60.48;94837.28;10465626;28;20056;-75
2021/04/15 13:57:59;;;;;;;13.00;6.20;;;;;;;7.35;57.84;94832.44;10482268;28;20048;-75
2021/04/15 14:02:59;;;;;;;10.00;5.93;;;;;;;7.52;60.08;94843.03;10492663;28;20083;-75
2021/04/15 14:08:37;;;;;;;11.00;5.50;;;;;;;7.61;56.22;94832.69;10496901;28;20558;-76
2021/04/15 14:13:41;;;;;;;10.48;6.35;;;;;;;7.45;56.97;94841.59;10399143;28;20694;-75
2021/04/15 14:18:44;;;;;;;7.22;4.85;;;;;;;7.56;57.31;94831.84;10496365;28;20047;-76
2021/04/15 14:23:47;;;;;;;9.10;5.18;;;;;;;7.63;57.77;94843.97;10495755;28;20064;-75
2021/04/15 14:28:51;;;;;;;10.07;5.68;;;;;;;7.77;56.41;94844.38;10511556;28;20113;-75
2021/04/15 14:33:53;;;;;;;11.90;6.03;;;;;;;7.89;54.71;94846.09;10495573;28;20037;-76
2021/04/15 14:38:56;;;;;;;10.50;6.07;;;;;;;8.00;55.84;94840.56;10521682;28;20028;-76
2021/04/15 14:44:17;;;;;;;13.40;5.90;;;;;;;7.94;57.92;94849.63;10537336;28;20402;-76
2021/04/15 14:49:25;;;;;;;8.60;5.30;;;;;;;7.60;57.79;94862.38;10537749;28;20118;-76
2021/04/15 14:54:26;;;;;;;9.40;5.00;;;;;;;7.41;57.61;94865.38;10503908;28;20110;-76
2021/04/15 14:59:36;;;;;;;10.70;5.97;;;;;;;7.49;58.89;94869.47;10477893;28;20123;-76
2021/04/15 15:04:37;;;;;;;8.85;5.50;;;;;;;7.23;54.99;94860.31;10494678;28;20109;-76
2021/04/15 15:09:41;;;;;;;8.75;6.00;;;;;;;7.18;55.81;94874.44;10492410;28;20560;-76
2021/04/15 15:14:48;;;;;;;10.77;5.20;;;;;;;7.25;56.03;94860.91;10488118;28;20705;-76
2021/04/15 15:19:49;;;;;;;8.98;5.32;;;;;;;7.33;54.29;94873.84;10487656;28;20072;-75
2021/04/15 15:24:49;;;;;;;6.85;4.72;;;;;;;7.18;54.57;94874.44;10486691;28;20028;-75
2021/04/15 15:30:08;;;;;;;11.35;5.40;;;;;;;7.01;55.52;94866.50;10487491;28;20030;-75
2021/04/15 15:35:11;;;;;;;6.65;4.38;;;;;;;6.87;57.46;94867.91;10444966;28;20083;-77
2021/04/15 15:40:33;;;;;;;8.75;5.13;;;;;;;6.08;62.17;94867.78;10445092;28;20683;-76
2021/04/15 15:45:46;;;;;;;8.82;4.85;;;;;;;6.19;64.39;94868.75;10453008;28;20029;-74
2021/04/15 15:50:53;;;;;;;9.98;5.22;;;;;;;6.48;60.73;94866.81;10450984;28;20054;-75
2021/04/15 15:55:56;;;;;;;9.88;5.80;;;;;;;6.40;59.92;94869.09;10486308;28;20135;-75
2021/04/15 16:01:22;;;;;;;7.40;4.63;;;;;;;6.36;60.83;94867.94;10528828;28;20035;-75
2021/04/15 16:06:23;;;;;;;11.48;6.13;;;;;;;6.45;61.03;94875.31;10525352;28;20036;-76
2021/04/15 16:11:43;;;;;;;16.73;6.53;;;;;;;6.41;63.21;94882.19;10510333;28;20028;-76
2021/04/15 16:16:49;;;;;;;9.80;5.40;;;;;;;6.10;64.86;94891.56;10510196;28;20039;-76
2021/04/15 16:21:54;;;;;;;13.80;7.20;;;;;;;6.17;61.83;94892.22;10520304;28;20032;-76
2021/04/15 16:27:02;;;;;;;8.32;5.40;;;;;;;6.10;64.04;94888.91;10485783;28;20032;-76
2021/04/15 16:32:03;;;;;;;13.57;6.70;;;;;;;5.88;69.83;94891.41;10492194;28;20028;-75
2021/04/15 16:37:08;;;;;;;11.52;6.38;;;;;;;5.95;67.84;94890.19;10535534;28;20078;-75
2021/04/15 16:42:14;;;;;;;9.27;5.60;;;;;;;5.80;66.90;94892.59;10522062;28;20110;-76
2021/04/15 16:47:14;;;;;;;9.23;6.20;;;;;;;5.37;68.46;94896.56;10522570;28;20060;-75
2021/04/15 16:52:15;;;;;;;11.30;5.43;;;;;;;5.28;73.22;94891.63;10522072;28;20048;-75
2021/04/15 16:57:16;;;;;;;8.63;4.95;;;;;;;5.24;71.40;94901.13;10520925;28;20889;-75
2021/04/15 17:02:17;;;;;;;14.27;6.70;;;;;;;5.30;72.52;94904.69;10522547;28;20119;-75
2021/04/15 17:07:18;;;;;;;10.77;5.53;;;;;;;5.24;73.80;94911.78;10522616;28;20032;-75
2021/04/15 17:12:18;;;;;;;12.07;6.10;;;;;;;4.77;78.91;94923.31;10522176;28;20051;-74
2021/04/15 17:17:18;;;;;;;14.63;7.00;;;;;;;4.61;81.33;94921.34;10524854;28;20024;-75
2021/04/15 17:22:19;;;;;;;10.55;5.85;;;;;;;4.38;86.50;94924.78;10523006;28;20024;-75
2021/04/15 17:27:21;;;;;;;12.77;5.85;;;;;;;4.49;81.43;94931.97;10523033;28;20098;-75
2021/04/15 17:32:22;;;;;;;15.30;7.05;;;;;;;4.47;81.28;94938.59;10526666;28;20032;-76
2021/04/15 17:37:23;;;;;;;11.95;6.35;;;;;;;4.38;82.86;94952.22;10528384;28;20111;-75
2021/04/15 17:42:23;;;;;;;9.30;5.68;;;;;;;4.36;81.85;94958.81;10522348;28;20839;-74
2021/04/15 17:47:25;;;;;;;12.43;6.80;;;;;;;4.12;82.46;94961.41;10526866;28;20020;-76
2021/04/15 17:52:25;;;;;;;11.55;6.60;;;;;;;3.83;81.05;94971.81;10509915;28;20529;-74
2021/04/15 17:57:25;;;;;;;12.67;7.37;;;;;;;3.75;83.62;94964.97;10527620;28;20043;-74
2021/04/15 18:02:27;;;;;;;11.13;6.50;;;;;;;3.56;88.37;94974.81;10528283;28;20105;-75
2021/04/15 18:07:28;;;;;;;14.18;7.43;;;;;;;3.45;89.69;94985.34;10528032;28;20411;-75
2021/04/15 18:12:29;;;;;;;12.50;6.40;;;;;;;3.47;87.69;95001.91;10496118;28;20476;-75
2021/04/15 18:17:29;;;;;;;13.63;7.30;;;;;;;3.33;89.33;94993.25;10482367;28;20074;-75
2021/04/15 18:22:30;;;;;;;15.10;7.77;;;;;;;3.20;90.59;95000.34;10484581;28;20233;-75
2021/04/15 18:27:30;;;;;;;11.23;7.07;;;;;;;3.14;93.05;95003.88;10524138;28;20380;-75
2021/04/15 18:32:30;;;;;;;11.57;8.07;;;;;;;2.99;93.91;95006.88;10523767;28;20471;-78
2021/04/15 18:37:31;;;;;;;17.47;7.67;;;;;;;3.10;92.79;95005.34;10524522;28;20301;-78
2021/04/15 18:42:31;;;;;;;12.43;7.60;;;;;;;3.25;96.48;95013.78;10523567;28;20354;-77
2021/04/15 18:47:32;;;;;;;14.53;7.20;;;;;;;3.12;99.36;95013.09;10528408;28;20036;-77
2021/04/15 18:52:32;;;;;;;12.85;8.27;;;;;;;3.05;97.54;95007.84;10498084;28;20307;-77
2021/04/15 18:57:33;;;;;;;20.00;8.13;;;;;;;2.92;94.70;95008.78;10471233;28;20450;-78
2021/04/15 19:02:34;;;;;;;15.43;9.90;;;;;;;2.83;97.57;95005.59;10488879;28;20084;-78
2021/04/15 19:07:35;;;;;;;15.13;9.68;;;;;;;2.79;98.53;95009.72;10493051;28;20099;-78
2021/04/15 19:12:36;;;;;;;26.85;11.18;;;;;;;2.64;100.00;95011.91;10488147;28;20475;-78
2021/04/15 19:17:36;;;;;;;19.10;11.50;;;;;;;2.54;100.00;95012.34;10489062;28;20028;-78
2021/04/15 19:22:37;;;;;;;24.90;11.60;;;;;;;2.57;100.00;95017.25;10488915;28;20275;-78
2021/04/15 19:27:37;;;;;;;26.47;12.60;;;;;;;2.63;99.91;95019.03;10508694;28;20039;-79
2021/04/15 19:32:37;;;;;;;22.08;11.18;;;;;;;2.66;100.00;95007.16;10530644;28;20169;-78
2021/04/15 19:37:38;;;;;;;24.37;13.87;;;;;;;2.70;100.00;95021.63;10509206;28;20024;-78
2021/04/15 19:42:38;;;;;;;29.40;11.85;;;;;;;2.65;100.00;95026.75;10529685;28;20028;-78
2021/04/15 19:47:41;;;;;;;22.83;11.27;;;;;;;2.68;100.00;95023.66;10528721;28;20479;-78
2021/04/15 19:52:41;;;;;;;18.67;10.98;;;;;;;2.67;100.00;95022.88;10507679;28;20496;-78
2021/04/15 19:57:41;;;;;;;18.60;10.73;;;;;;;2.69;100.00;95025.31;10467627;28;20033;-78
2021/04/15 20:02:42;;;;;;;26.05;10.80;;;;;;;2.68;100.00;95018.38;10474710;28;20484;-78
2021/04/15 20:07:44;;;;;;;25.92;12.30;;;;;;;2.71;100.00;95016.09;10428399;28;20021;-78
2021/04/15 20:12:44;;;;;;;26.67;11.70;;;;;;;2.69;100.00;95020.81;10445429;28;20498;-73
2021/04/15 20:17:45;;;;;;;20.77;10.23;;;;;;;2.67;100.00;95028.19;10444341;28;20044;-72
2021/04/15 20:22:45;;;;;;;17.95;9.48;;;;;;;2.68;100.00;95028.97;10427006;28;20279;-73
2021/04/15 20:27:46;;;;;;;14.25;8.63;;;;;;;2.69;100.00;95026.13;10444554;28;20033;-73
2021/04/15 20:32:47;;;;;;;17.65;8.63;;;;;;;2.69;100.00;95031.44;10443662;28;20057;-73
2021/04/15 20:37:48;;;;;;;12.70;8.13;;;;;;;2.68;99.63;95031.63;10448417;28;20048;-73
2021/04/15 20:42:48;;;;;;;20.23;8.07;;;;;;;2.64;100.00;95039.22;10443889;28;20799;-73
2021/04/15 20:47:48;;;;;;;14.93;9.57;;;;;;;2.34;100.00;95049.63;10443238;28;20020;-73
2021/04/15 20:52:49;;;;;;;18.13;9.95;;;;;;;2.15;100.00;95051.34;10465406;28;20106;-73
2021/04/15 20:57:50;;;;;;;19.17;10.15;;;;;;;2.24;100.00;95049.28;10484319;28;20032;-73
2021/04/15 21:02:51;;;;;;;16.38;9.75;;;;;;;2.24;100.00;95049.28;10483730;28;20028;-73
2021/04/15 21:07:52;;;;;;;15.20;9.23;;;;;;;1.99;100.00;95056.13;10483341;28;20821;-73
2021/04/15 21:12:54;;;;;;;14.15;8.60;;;;;;;1.95;100.00;95062.06;10484447;28;20483;-73
2021/04/15 21:17:55;;;;;;;14.82;9.85;;;;;;;1.91;100.00;95061.66;10483650;28;20195;-73
2021/04/15 21:22:59;;;;;;;18.10;9.93;;;;;;;1.80;100.00;95059.69;10483936;28;20028;-73
2021/04/15 21:28:00;;;;;;;16.88;10.05;;;;;;;1.72;100.00;95052.81;10484404;28;20036;-73
2021/04/15 21:33:01;;;;;;;17.87;8.77;;;;;;;1.68;100.00;95052.41;10483280;28;20035;-71
2021/04/15 21:38:03;;;;;;;16.05;9.10;;;;;;;1.63;100.00;95049.56;10506303;28;20093;-73
2021/04/15 21:43:04;;;;;;;14.23;9.48;;;;;;;1.57;100.00;95046.94;10525382;28;20046;-71
2021/04/15 21:48:04;;;;;;;17.92;9.63;;;;;;;1.50;100.00;95037.16;10488348;28;20236;-71
2021/04/15 21:53:06;;;;;;;16.58;10.23;;;;;;;1.43;100.00;95032.94;10482532;28;20118;-72
2021/04/15 21:58:28;;;;;;;13.75;9.32;;;;;;;1.44;100.00;95043.31;10486600;28;20041;-76
2021/04/15 22:03:28;;;;;;;15.93;9.85;;;;;;;1.41;100.00;95043.72;10468274;28;20451;-77
2021/04/15 22:08:32;;;;;;;15.82;11.18;;;;;;;1.40;100.00;95054.53;10486423;28;20106;-77
2021/04/15 22:13:33;;;;;;;18.15;10.27;;;;;;;1.35;100.00;95050.69;10484160;28;20032;-77
2021/04/15 22:18:33;;;;;;;19.10;9.82;;;;;;;1.42;100.00;95063.06;10487429;28;20025;-77
2021/04/15 22:23:36;;;;;;;18.30;9.00;;;;;;;1.36;100.00;95043.53;10492165;28;20032;-77
2021/04/15 22:28:38;;;;;;;17.13;9.95;;;;;;;1.46;100.00;95043.91;10493790;28;20271;-77
2021/04/15 22:33:39;;;;;;;17.33;9.15;;;;;;;1.60;100.00;95049.97;10474627;28;20367;-76
2021/04/15 22:38:39;;;;;;;14.88;9.45;;;;;;;1.73;100.00;95053.59;10493323;28;20027;-76
2021/04/15 22:43:40;;;;;;;15.98;9.35;;;;;;;1.64;100.00;95050.38;10493416;28;20490;-76
2021/04/15 22:48:40;;;;;;;27.25;9.57;;;;;;;1.75;100.00;95043.63;10492833;28;20515;-76
2021/04/15 22:53:41;;;;;;;13.30;9.00;;;;;;;1.52;100.00;95044.91;10492977;28;20065;-76
2021/04/15 22:58:43;;;;;;;17.02;9.95;;;;;;;1.45;100.00;95042.28;10493106;28;20295;-77
2021/04/15 23:03:44;;;;;;;14.02;8.70;;;;;;;1.39;100.00;95042.31;10509079;28;20067;-77
2021/04/15 23:08:46;;;;;;;10.80;8.05;;;;;;;1.58;100.00;95037.94;10492951;28;20108;-77
2021/04/15 23:13:47;;;;;;;13.07;8.63;;;;;;;1.47;100.00;95047.38;10492061;28;20456;-77
2021/04/15 23:18:47;;;;;;;13.25;8.05;;;;;;;1.41;100.00;95041.09;10471668;28;20029;-77
2021/04/15 23:23:47;;;;;;;13.90;8.45;;;;;;;1.41;100.00;95046.38;10489501;28;20039;-77
2021/04/15 23:28:48;;;;;;;10.30;7.60;;;;;;;1.37;100.00;95034.56;10489092;28;20663;-76
2021/04/15 23:33:48;;;;;;;11.05;8.00;;;;;;;1.44;100.00;95035.38;10469465;28;21156;-76
2021/04/15 23:38:49;;;;;;;10.67;7.70;;;;;;;1.48;100.00;95033.94;10487782;28;20035;-77
2021/04/15 23:43:50;;;;;;;9.45;7.47;;;;;;;1.46;100.00;95035.97;10488016;28;20035;-76